createdAt,value
2022-12-18T00:01:08.866Z,3.15
2022-12-18T00:03:36.725Z,3.00
2022-12-18T00:06:03.587Z,3.25
2022-12-18T00:08:30.097Z,2.78
2022-12-18T00:11:00.017Z,3.47
2022-12-18T00:13:28.256Z,2.80
2022-12-18T00:15:56.586Z,3.05
2022-12-18T00:18:23.626Z,3.50
2022-12-18T00:20:50.401Z,2.78
2022-12-18T00:23:17.279Z,3.03
2022-12-18T00:25:43.780Z,3.33
2022-12-18T00:28:10.372Z,3.17
2022-12-18T00:30:36.920Z,2.55
2022-12-18T00:33:03.558Z,3.20
2022-12-18T00:35:30.070Z,3.03
2022-12-18T00:37:56.669Z,3.13
2022-12-18T00:40:23.539Z,2.17
2022-12-18T00:42:59.226Z,3.08
2022-12-18T00:45:27.996Z,2.53
2022-12-18T00:47:55.281Z,3.13
2022-12-18T00:50:40.532Z,2.70
2022-12-18T00:53:07.292Z,2.85
2022-12-18T00:55:33.912Z,2.42
2022-12-18T00:58:00.533Z,3.33
2022-12-18T01:00:27.063Z,3.33
2022-12-18T01:02:53.696Z,2.80
2022-12-18T01:05:20.440Z,3.03
2022-12-18T01:07:47.381Z,2.97
2022-12-18T01:10:14.148Z,2.90
2022-12-18T01:12:40.936Z,3.00
2022-12-18T01:15:08.976Z,2.10
2022-12-18T01:17:38.669Z,2.85
2022-12-18T01:20:06.290Z,3.22
2022-12-18T01:22:33.147Z,2.42
2022-12-18T01:25:00.464Z,3.17
2022-12-18T01:27:27.132Z,2.97
2022-12-18T01:29:53.640Z,3.08
2022-12-18T01:32:20.661Z,2.92
2022-12-18T01:34:47.324Z,2.40
2022-12-18T01:37:13.925Z,2.53
2022-12-18T01:39:40.695Z,2.50
2022-12-18T01:42:13.106Z,2.75
2022-12-18T01:45:04.108Z,3.63
2022-12-18T01:47:44.633Z,3.40
2022-12-18T01:50:12.929Z,3.83
2022-12-18T01:52:40.811Z,3.47
2022-12-18T01:55:09.257Z,3.63
2022-12-18T02:00:07.950Z,2.85
2022-12-18T02:02:40.776Z,3.20
2022-12-18T02:05:08.230Z,2.25
2022-12-18T02:07:41.979Z,4.00
2022-12-18T02:10:15.097Z,2.28
2022-12-18T02:12:46.909Z,3.05
2022-12-18T02:15:32.763Z,2.90
2022-12-18T02:18:06.912Z,2.90
2022-12-18T02:20:37.320Z,3.00
2022-12-18T02:23:25.457Z,2.97
2022-12-18T02:26:20.725Z,2.55
2022-12-18T02:28:55.236Z,2.60
2022-12-18T02:31:31.194Z,2.75
2022-12-18T02:34:02.050Z,3.15
2022-12-18T02:36:33.371Z,3.15
2022-12-18T02:39:02.213Z,2.95
2022-12-18T02:41:29.751Z,2.80
2022-12-18T02:44:00.785Z,2.70
2022-12-18T02:46:33.841Z,2.55
2022-12-18T02:49:27.000Z,3.00
2022-12-18T02:52:08.373Z,2.20
2022-12-18T02:54:54.253Z,2.92
2022-12-18T02:57:28.522Z,2.70
2022-12-18T03:00:01.076Z,2.58
2022-12-18T03:02:45.665Z,3.08
2022-12-18T03:05:32.820Z,2.63
2022-12-18T03:08:05.460Z,2.47
2022-12-18T03:10:49.787Z,2.35
2022-12-18T03:13:24.366Z,2.55
2022-12-18T03:15:54.239Z,2.58
2022-12-18T03:18:23.943Z,2.45
2022-12-18T03:20:53.741Z,2.58
2022-12-18T03:23:26.380Z,2.20
2022-12-18T03:25:57.578Z,2.60
2022-12-18T03:28:28.508Z,2.88
2022-12-18T03:31:01.598Z,2.85
2022-12-18T03:33:33.340Z,2.10
2022-12-18T03:35:59.911Z,2.90
2022-12-18T03:38:26.465Z,3.28
2022-12-18T03:41:22.937Z,2.53
2022-12-18T03:44:16.116Z,2.95
2022-12-18T03:46:52.039Z,2.03
2022-12-18T03:49:43.460Z,2.50
2022-12-18T03:52:14.805Z,2.53
2022-12-18T03:54:42.365Z,2.45
2022-12-18T03:57:22.267Z,2.60
2022-12-18T03:59:58.636Z,2.40
2022-12-18T04:02:30.992Z,2.10
2022-12-18T04:05:02.490Z,2.72
2022-12-18T04:07:29.428Z,2.67
2022-12-18T04:09:59.884Z,2.97
2022-12-18T04:12:28.141Z,2.22
2022-12-18T04:14:56.266Z,2.92
2022-12-18T04:17:23.354Z,2.60
2022-12-18T04:19:50.253Z,2.45
2022-12-18T04:22:17.300Z,2.67
2022-12-18T04:24:47.578Z,2.78
2022-12-18T04:27:22.693Z,2.67
2022-12-18T04:29:51.055Z,2.13
2022-12-18T04:32:18.876Z,2.78
2022-12-18T04:34:45.499Z,2.33
2022-12-18T04:37:12.316Z,2.15
2022-12-18T04:39:39.468Z,2.72
2022-12-18T04:42:11.982Z,2.95
2022-12-18T04:44:38.656Z,2.47
2022-12-18T04:47:05.159Z,2.55
2022-12-18T04:49:31.740Z,2.42
2022-12-18T04:51:58.305Z,2.90
2022-12-18T04:54:24.888Z,3.13
2022-12-18T04:56:51.371Z,2.97
2022-12-18T04:59:17.970Z,2.35
2022-12-18T05:01:44.620Z,2.70
2022-12-18T05:04:11.473Z,2.85
2022-12-18T05:06:38.100Z,3.10
2022-12-18T05:09:04.733Z,2.72
2022-12-18T05:11:32.580Z,3.05
2022-12-18T05:13:59.210Z,2.53
2022-12-18T05:16:26.047Z,3.00
2022-12-18T05:18:52.775Z,2.92
2022-12-18T05:21:19.382Z,3.22
2022-12-18T05:23:46.026Z,2.53
2022-12-18T05:26:17.051Z,2.95
2022-12-18T05:28:43.823Z,2.50
2022-12-18T05:31:10.936Z,2.58
2022-12-18T05:33:38.116Z,2.63
2022-12-18T05:36:07.286Z,2.53
2022-12-18T05:38:35.754Z,2.78
2022-12-18T05:43:29.682Z,2.80
2022-12-18T05:45:57.109Z,3.10
2022-12-18T05:48:23.706Z,2.15
2022-12-18T05:50:51.138Z,2.58
2022-12-18T05:53:20.323Z,2.40
2022-12-18T05:55:47.444Z,3.03
2022-12-18T05:58:15.289Z,2.80
2022-12-18T06:00:46.261Z,3.05
2022-12-18T06:03:14.348Z,2.70
2022-12-18T06:05:43.506Z,2.63
2022-12-18T06:08:10.728Z,2.78
2022-12-18T06:10:38.176Z,3.00
2022-12-18T06:13:05.112Z,2.65
2022-12-18T06:15:31.681Z,2.90
2022-12-18T06:17:58.521Z,2.80
2022-12-18T06:20:29.092Z,2.85
2022-12-18T06:22:58.504Z,2.85
2022-12-18T06:25:25.038Z,2.53
2022-12-18T06:27:51.597Z,2.53
2022-12-18T06:30:18.288Z,2.40
2022-12-18T06:32:45.496Z,2.97
2022-12-18T06:35:15.103Z,3.15
2022-12-18T06:37:41.740Z,2.25
2022-12-18T06:40:08.767Z,2.85
2022-12-18T06:42:35.295Z,2.80
2022-12-18T06:45:01.941Z,2.65
2022-12-18T06:47:28.742Z,2.35
2022-12-18T06:49:55.309Z,2.13
2022-12-18T06:52:21.863Z,2.65
2022-12-18T06:54:48.455Z,3.42
2022-12-18T06:57:14.918Z,2.53
2022-12-18T06:59:41.481Z,2.28
2022-12-18T07:02:12.437Z,2.50
2022-12-18T07:04:39.019Z,2.38
2022-12-18T07:07:05.534Z,2.80
2022-12-18T07:09:32.085Z,2.38
2022-12-18T07:11:58.606Z,2.33
2022-12-18T07:14:26.060Z,2.33
2022-12-18T07:16:53.061Z,2.00
2022-12-18T07:19:20.008Z,2.38
2022-12-18T07:21:46.588Z,2.90
2022-12-18T07:24:13.208Z,2.60
2022-12-18T07:26:39.766Z,2.85
2022-12-18T07:29:06.284Z,2.10
2022-12-18T07:31:32.939Z,2.53
2022-12-18T07:33:59.665Z,3.03
2022-12-18T07:36:26.539Z,2.13
2022-12-18T07:38:53.873Z,2.22
2022-12-18T07:41:21.111Z,2.80
2022-12-18T07:43:47.994Z,2.60
2022-12-18T07:46:15.844Z,2.83
2022-12-18T07:48:43.496Z,2.35
2022-12-18T07:51:12.084Z,2.42
2022-12-18T07:53:39.159Z,2.38
2022-12-18T07:58:55.842Z,3.28
2022-12-18T08:01:22.544Z,2.80
2022-12-18T08:03:49.507Z,2.38
2022-12-18T08:06:18.445Z,2.50
2022-12-18T08:08:45.142Z,2.88
2022-12-18T08:11:11.712Z,2.17
2022-12-18T08:13:38.812Z,2.53
2022-12-18T08:16:07.826Z,2.42
2022-12-18T08:18:35.862Z,1.92
2022-12-18T08:21:13.989Z,2.20
2022-12-18T08:23:43.109Z,2.60
2022-12-18T08:26:11.521Z,2.67
2022-12-18T08:28:38.515Z,2.22
2022-12-18T08:31:05.643Z,2.58
2022-12-18T08:33:33.223Z,2.28
2022-12-18T08:36:01.190Z,2.58
2022-12-18T08:38:27.855Z,2.78
2022-12-18T08:41:01.560Z,2.58
2022-12-18T08:43:46.627Z,1.92
2022-12-18T08:46:13.560Z,2.47
2022-12-18T08:48:42.776Z,3.05
2022-12-18T08:51:10.562Z,2.47
2022-12-18T08:53:38.365Z,2.47
2022-12-18T08:56:05.804Z,2.55
2022-12-18T08:58:32.387Z,2.28
2022-12-18T09:01:03.957Z,2.78
2022-12-18T09:03:30.624Z,2.72
2022-12-18T09:05:57.604Z,2.83
2022-12-18T09:08:24.337Z,2.65
2022-12-18T09:10:51.362Z,3.10
2022-12-18T09:13:18.837Z,2.83
2022-12-18T09:15:48.562Z,3.38
2022-12-18T09:18:16.949Z,4.90
2022-12-18T09:23:10.168Z,5.45
2022-12-18T09:25:37.674Z,4.57
2022-12-18T09:28:11.747Z,5.90
2022-12-18T09:30:40.062Z,5.40
2022-12-18T09:35:34.046Z,5.38
2022-12-18T09:38:00.639Z,6.28
2022-12-18T09:40:37.645Z,5.32
2022-12-18T09:43:05.899Z,4.85
2022-12-18T09:45:42.098Z,6.30
2022-12-18T09:48:20.160Z,7.22
2022-12-18T09:50:47.696Z,6.05
2022-12-18T09:53:20.389Z,6.68
2022-12-18T09:55:49.004Z,6.75
2022-12-18T09:58:20.549Z,6.45
2022-12-18T10:00:47.316Z,5.97
2022-12-18T10:03:16.306Z,6.28
2022-12-18T10:06:02.208Z,5.95
2022-12-18T10:08:31.756Z,7.53
2022-12-18T10:11:05.020Z,5.82
2022-12-18T10:13:34.468Z,5.35
2022-12-18T10:16:12.660Z,6.70
2022-12-18T10:19:07.344Z,5.32
2022-12-18T10:21:58.323Z,5.68
2022-12-18T10:24:34.988Z,5.68
